sensor_id;sensor_type;location;lat;lon;timestamp;P1;durP1;ratioP1;P2;durP2;ratioP2
8538;SDS011;4307;53.868;11.680;2023-07-13T00:01:26;5.30;;;3.37;;
8538;SDS011;4307;53.868;11.680;2023-07-13T00:03:52;4.50;;;3.03;;
8538;SDS011;4307;53.868;11.680;2023-07-13T00:06:19;3.53;;;3.00;;
8538;SDS011;4307;53.868;11.680;2023-07-13T00:08:47;3.37;;;2.90;;
8538;SDS011;4307;53.868;11.680;2023-07-13T00:11:15;6.60;;;3.27;;
8538;SDS011;4307;53.868;11.680;2023-07-13T00:13:42;3.87;;;3.40;;
8538;SDS011;4307;53.868;11.680;2023-07-13T00:16:10;4.87;;;3.03;;
8538;SDS011;4307;53.868;11.680;2023-07-13T00:18:38;4.47;;;3.07;;
8538;SDS011;4307;53.868;11.680;2023-07-13T00:21:05;3.57;;;2.97;;
8538;SDS011;4307;53.868;11.680;2023-07-13T00:23:32;6.27;;;3.10;;
8538;SDS011;4307;53.868;11.680;2023-07-13T00:26:01;5.90;;;3.50;;
8538;SDS011;4307;53.868;11.680;2023-07-13T00:28:28;3.43;;;3.13;;
8538;SDS011;4307;53.868;11.680;2023-07-13T00:30:55;5.33;;;3.60;;
8538;SDS011;4307;53.868;11.680;2023-07-13T00:33:21;8.20;;;4.30;;
8538;SDS011;4307;53.868;11.680;2023-07-13T00:35:49;4.67;;;3.07;;
8538;SDS011;4307;53.868;11.680;2023-07-13T00:38:16;5.90;;;3.13;;
8538;SDS011;4307;53.868;11.680;2023-07-13T00:40:42;7.67;;;3.73;;
8538;SDS011;4307;53.868;11.680;2023-07-13T00:43:12;4.97;;;3.13;;
8538;SDS011;4307;53.868;11.680;2023-07-13T00:48:37;5.40;;;3.50;;
8538;SDS011;4307;53.868;11.680;2023-07-13T00:51:04;3.50;;;3.17;;
8538;SDS011;4307;53.868;11.680;2023-07-13T00:53:31;4.80;;;3.10;;
8538;SDS011;4307;53.868;11.680;2023-07-13T00:55:59;5.60;;;3.53;;
8538;SDS011;4307;53.868;11.680;2023-07-13T00:58:29;6.07;;;3.17;;
8538;SDS011;4307;53.868;11.680;2023-07-13T01:00:56;5.30;;;3.10;;
8538;SDS011;4307;53.868;11.680;2023-07-13T01:03:22;4.43;;;3.07;;
8538;SDS011;4307;53.868;11.680;2023-07-13T01:05:49;5.83;;;3.10;;
8538;SDS011;4307;53.868;11.680;2023-07-13T01:08:18;4.63;;;3.10;;
8538;SDS011;4307;53.868;11.680;2023-07-13T01:10:52;9.07;;;3.27;;
8538;SDS011;4307;53.868;11.680;2023-07-13T01:13:20;6.03;;;3.40;;
8538;SDS011;4307;53.868;11.680;2023-07-13T01:15:49;6.30;;;3.43;;
8538;SDS011;4307;53.868;11.680;2023-07-13T01:18:18;3.13;;;2.77;;
8538;SDS011;4307;53.868;11.680;2023-07-13T01:20:50;4.40;;;2.80;;
8538;SDS011;4307;53.868;11.680;2023-07-13T01:23:17;4.67;;;2.83;;
8538;SDS011;4307;53.868;11.680;2023-07-13T01:25:45;4.27;;;2.97;;
8538;SDS011;4307;53.868;11.680;2023-07-13T01:28:11;7.23;;;3.00;;
8538;SDS011;4307;53.868;11.680;2023-07-13T01:30:38;3.80;;;3.17;;
8538;SDS011;4307;53.868;11.680;2023-07-13T01:33:06;6.70;;;3.13;;
8538;SDS011;4307;53.868;11.680;2023-07-13T01:35:34;8.80;;;3.33;;
8538;SDS011;4307;53.868;11.680;2023-07-13T01:38:02;3.93;;;2.73;;
8538;SDS011;4307;53.868;11.680;2023-07-13T01:40:30;5.53;;;3.50;;
8538;SDS011;4307;53.868;11.680;2023-07-13T01:42:57;4.40;;;2.97;;
8538;SDS011;4307;53.868;11.680;2023-07-13T01:45:24;3.50;;;3.20;;
8538;SDS011;4307;53.868;11.680;2023-07-13T01:47:50;3.80;;;2.97;;
8538;SDS011;4307;53.868;11.680;2023-07-13T01:50:17;4.83;;;2.97;;
8538;SDS011;4307;53.868;11.680;2023-07-13T01:52:44;4.97;;;2.93;;
8538;SDS011;4307;53.868;11.680;2023-07-13T01:55:12;7.90;;;3.13;;
8538;SDS011;4307;53.868;11.680;2023-07-13T01:57:38;4.47;;;3.07;;
8538;SDS011;4307;53.868;11.680;2023-07-13T02:00:06;3.47;;;2.93;;
8538;SDS011;4307;53.868;11.680;2023-07-13T02:02:35;5.13;;;3.30;;
8538;SDS011;4307;53.868;11.680;2023-07-13T02:05:02;7.67;;;3.20;;
8538;SDS011;4307;53.868;11.680;2023-07-13T02:07:29;4.93;;;2.77;;
8538;SDS011;4307;53.868;11.680;2023-07-13T02:09:55;4.70;;;3.13;;
8538;SDS011;4307;53.868;11.680;2023-07-13T02:12:23;5.20;;;3.43;;
8538;SDS011;4307;53.868;11.680;2023-07-13T02:14:50;8.40;;;3.50;;
8538;SDS011;4307;53.868;11.680;2023-07-13T02:17:17;3.60;;;2.90;;
8538;SDS011;4307;53.868;11.680;2023-07-13T02:19:43;5.23;;;3.10;;
8538;SDS011;4307;53.868;11.680;2023-07-13T02:22:10;4.67;;;3.20;;
8538;SDS011;4307;53.868;11.680;2023-07-13T02:24:37;3.63;;;2.93;;
8538;SDS011;4307;53.868;11.680;2023-07-13T02:27:04;6.00;;;2.60;;
8538;SDS011;4307;53.868;11.680;2023-07-13T02:29:32;7.57;;;3.27;;
8538;SDS011;4307;53.868;11.680;2023-07-13T02:31:59;3.93;;;2.87;;
8538;SDS011;4307;53.868;11.680;2023-07-13T02:34:26;4.93;;;3.30;;
8538;SDS011;4307;53.868;11.680;2023-07-13T02:36:52;3.53;;;3.23;;
8538;SDS011;4307;53.868;11.680;2023-07-13T02:39:19;3.53;;;3.23;;
8538;SDS011;4307;53.868;11.680;2023-07-13T02:41:45;5.83;;;3.10;;
8538;SDS011;4307;53.868;11.680;2023-07-13T02:44:12;8.80;;;3.40;;
8538;SDS011;4307;53.868;11.680;2023-07-13T02:46:41;6.00;;;3.40;;
8538;SDS011;4307;53.868;11.680;2023-07-13T02:49:07;8.23;;;3.07;;
8538;SDS011;4307;53.868;11.680;2023-07-13T02:51:34;5.73;;;3.40;;
8538;SDS011;4307;53.868;11.680;2023-07-13T02:54:01;4.60;;;3.10;;
8538;SDS011;4307;53.868;11.680;2023-07-13T02:56:28;6.00;;;3.07;;
8538;SDS011;4307;53.868;11.680;2023-07-13T02:58:57;6.20;;;3.00;;
8538;SDS011;4307;53.868;11.680;2023-07-13T03:01:24;3.33;;;3.03;;
8538;SDS011;4307;53.868;11.680;2023-07-13T03:03:52;6.37;;;3.50;;
8538;SDS011;4307;53.868;11.680;2023-07-13T03:06:19;6.13;;;2.90;;
8538;SDS011;4307;53.868;11.680;2023-07-13T03:08:46;3.33;;;3.00;;
8538;SDS011;4307;53.868;11.680;2023-07-13T03:11:14;4.00;;;2.70;;
8538;SDS011;4307;53.868;11.680;2023-07-13T03:13:43;5.17;;;2.87;;
8538;SDS011;4307;53.868;11.680;2023-07-13T03:16:10;5.40;;;3.20;;
8538;SDS011;4307;53.868;11.680;2023-07-13T03:18:37;4.70;;;2.73;;
8538;SDS011;4307;53.868;11.680;2023-07-13T03:21:05;4.37;;;2.77;;
8538;SDS011;4307;53.868;11.680;2023-07-13T03:23:32;3.90;;;2.77;;
8538;SDS011;4307;53.868;11.680;2023-07-13T03:26:02;5.80;;;2.73;;
8538;SDS011;4307;53.868;11.680;2023-07-13T03:28:31;5.47;;;3.23;;
8538;SDS011;4307;53.868;11.680;2023-07-13T03:31:01;5.27;;;3.17;;
8538;SDS011;4307;53.868;11.680;2023-07-13T03:33:29;4.60;;;3.00;;
8538;SDS011;4307;53.868;11.680;2023-07-13T03:35:56;5.73;;;3.10;;
8538;SDS011;4307;53.868;11.680;2023-07-13T03:38:24;6.70;;;2.97;;
8538;SDS011;4307;53.868;11.680;2023-07-13T03:40:51;4.27;;;2.87;;
8538;SDS011;4307;53.868;11.680;2023-07-13T03:43:17;4.63;;;3.20;;
8538;SDS011;4307;53.868;11.680;2023-07-13T03:45:45;5.23;;;3.03;;
8538;SDS011;4307;53.868;11.680;2023-07-13T03:48:12;5.97;;;3.30;;
8538;SDS011;4307;53.868;11.680;2023-07-13T03:50:39;7.53;;;3.47;;
8538;SDS011;4307;53.868;11.680;2023-07-13T03:53:06;5.63;;;2.87;;
8538;SDS011;4307;53.868;11.680;2023-07-13T03:55:34;8.87;;;3.83;;
8538;SDS011;4307;53.868;11.680;2023-07-13T03:58:05;5.20;;;3.00;;
8538;SDS011;4307;53.868;11.680;2023-07-13T04:00:52;6.23;;;3.50;;
8538;SDS011;4307;53.868;11.680;2023-07-13T04:03:19;4.00;;;3.20;;
8538;SDS011;4307;53.868;11.680;2023-07-13T04:05:45;6.03;;;3.50;;
8538;SDS011;4307;53.868;11.680;2023-07-13T04:08:12;5.43;;;3.10;;
8538;SDS011;4307;53.868;11.680;2023-07-13T04:10:41;6.37;;;3.30;;
8538;SDS011;4307;53.868;11.680;2023-07-13T04:13:08;5.60;;;3.23;;
8538;SDS011;4307;53.868;11.680;2023-07-13T04:15:34;4.67;;;3.30;;
8538;SDS011;4307;53.868;11.680;2023-07-13T04:18:01;3.53;;;2.93;;
8538;SDS011;4307;53.868;11.680;2023-07-13T04:20:29;5.53;;;3.10;;
8538;SDS011;4307;53.868;11.680;2023-07-13T04:22:55;7.73;;;3.20;;
8538;SDS011;4307;53.868;11.680;2023-07-13T04:25:23;4.53;;;3.00;;
8538;SDS011;4307;53.868;11.680;2023-07-13T04:27:52;5.00;;;3.07;;
8538;SDS011;4307;53.868;11.680;2023-07-13T04:30:19;5.17;;;2.90;;
8538;SDS011;4307;53.868;11.680;2023-07-13T04:32:45;4.53;;;2.80;;
8538;SDS011;4307;53.868;11.680;2023-07-13T04:35:13;5.20;;;2.60;;
8538;SDS011;4307;53.868;11.680;2023-07-13T04:37:40;2.70;;;2.50;;
8538;SDS011;4307;53.868;11.680;2023-07-13T04:40:09;6.33;;;2.83;;
8538;SDS011;4307;53.868;11.680;2023-07-13T04:42:37;6.60;;;2.70;;
8538;SDS011;4307;53.868;11.680;2023-07-13T04:45:06;2.77;;;2.50;;
8538;SDS011;4307;53.868;11.680;2023-07-13T04:47:33;4.07;;;2.30;;
8538;SDS011;4307;53.868;11.680;2023-07-13T04:50:00;3.53;;;2.30;;
8538;SDS011;4307;53.868;11.680;2023-07-13T04:52:26;4.67;;;2.60;;
8538;SDS011;4307;53.868;11.680;2023-07-13T04:54:53;6.47;;;2.83;;
8538;SDS011;4307;53.868;11.680;2023-07-13T04:57:20;3.93;;;2.33;;
8538;SDS011;4307;53.868;11.680;2023-07-13T04:59:46;2.70;;;2.50;;
8538;SDS011;4307;53.868;11.680;2023-07-13T05:02:15;3.87;;;2.60;;
8538;SDS011;4307;53.868;11.680;2023-07-13T05:04:41;3.03;;;2.20;;
8538;SDS011;4307;53.868;11.680;2023-07-13T05:07:08;4.83;;;2.60;;
8538;SDS011;4307;53.868;11.680;2023-07-13T05:09:36;2.80;;;2.60;;
8538;SDS011;4307;53.868;11.680;2023-07-13T05:12:02;3.00;;;2.40;;
8538;SDS011;4307;53.868;11.680;2023-07-13T05:14:29;2.60;;;2.40;;
8538;SDS011;4307;53.868;11.680;2023-07-13T05:16:56;2.70;;;2.40;;
8538;SDS011;4307;53.868;11.680;2023-07-13T05:19:24;4.00;;;3.03;;
8538;SDS011;4307;53.868;11.680;2023-07-13T05:21:51;2.93;;;2.57;;
8538;SDS011;4307;53.868;11.680;2023-07-13T05:24:17;5.17;;;2.80;;
8538;SDS011;4307;53.868;11.680;2023-07-13T05:26:44;3.50;;;2.90;;
8538;SDS011;4307;53.868;11.680;2023-07-13T05:29:11;4.90;;;2.70;;
8538;SDS011;4307;53.868;11.680;2023-07-13T05:31:37;6.27;;;2.87;;
8538;SDS011;4307;53.868;11.680;2023-07-13T05:34:04;3.20;;;2.50;;
8538;SDS011;4307;53.868;11.680;2023-07-13T05:36:32;2.80;;;2.40;;
8538;SDS011;4307;53.868;11.680;2023-07-13T05:38:59;2.90;;;2.53;;
8538;SDS011;4307;53.868;11.680;2023-07-13T05:41:26;2.73;;;2.20;;
8538;SDS011;4307;53.868;11.680;2023-07-13T05:43:52;5.43;;;2.73;;
8538;SDS011;4307;53.868;11.680;2023-07-13T05:46:19;4.73;;;2.80;;
8538;SDS011;4307;53.868;11.680;2023-07-13T05:48:46;3.03;;;2.70;;
8538;SDS011;4307;53.868;11.680;2023-07-13T05:51:12;3.30;;;2.60;;
8538;SDS011;4307;53.868;11.680;2023-07-13T05:53:41;3.97;;;2.37;;
8538;SDS011;4307;53.868;11.680;2023-07-13T05:56:07;2.67;;;2.47;;
8538;SDS011;4307;53.868;11.680;2023-07-13T05:58:34;3.83;;;2.50;;
8538;SDS011;4307;53.868;11.680;2023-07-13T06:01:02;3.50;;;2.27;;
8538;SDS011;4307;53.868;11.680;2023-07-13T06:03:29;3.27;;;2.70;;
8538;SDS011;4307;53.868;11.680;2023-07-13T06:05:56;4.30;;;2.67;;
8538;SDS011;4307;53.868;11.680;2023-07-13T06:08:25;3.17;;;2.63;;
8538;SDS011;4307;53.868;11.680;2023-07-13T06:10:53;3.53;;;2.23;;
8538;SDS011;4307;53.868;11.680;2023-07-13T06:13:20;2.60;;;2.40;;
8538;SDS011;4307;53.868;11.680;2023-07-13T06:15:47;2.87;;;2.50;;
8538;SDS011;4307;53.868;11.680;2023-07-13T06:18:15;3.63;;;2.40;;
8538;SDS011;4307;53.868;11.680;2023-07-13T06:20:41;3.13;;;2.33;;
8538;SDS011;4307;53.868;11.680;2023-07-13T06:23:08;4.43;;;2.70;;
8538;SDS011;4307;53.868;11.680;2023-07-13T06:25:34;4.97;;;2.50;;
8538;SDS011;4307;53.868;11.680;2023-07-13T06:28:03;4.03;;;2.30;;
8538;SDS011;4307;53.868;11.680;2023-07-13T06:30:29;4.07;;;2.27;;
8538;SDS011;4307;53.868;11.680;2023-07-13T06:32:56;5.43;;;2.10;;
8538;SDS011;4307;53.868;11.680;2023-07-13T06:35:23;2.80;;;1.83;;
8538;SDS011;4307;53.868;11.680;2023-07-13T06:37:50;2.83;;;2.00;;
8538;SDS011;4307;53.868;11.680;2023-07-13T06:40:16;4.77;;;2.30;;
8538;SDS011;4307;53.868;11.680;2023-07-13T06:42:43;2.77;;;1.87;;
8538;SDS011;4307;53.868;11.680;2023-07-13T06:45:11;4.60;;;2.50;;
8538;SDS011;4307;53.868;11.680;2023-07-13T06:47:38;4.63;;;2.50;;
8538;SDS011;4307;53.868;11.680;2023-07-13T06:50:05;5.93;;;2.10;;
8538;SDS011;4307;53.868;11.680;2023-07-13T06:52:32;3.07;;;2.00;;
8538;SDS011;4307;53.868;11.680;2023-07-13T06:54:59;3.83;;;2.07;;
8538;SDS011;4307;53.868;11.680;2023-07-13T06:57:25;2.93;;;2.27;;
8538;SDS011;4307;53.868;11.680;2023-07-13T06:59:52;4.40;;;2.20;;
8538;SDS011;4307;53.868;11.680;2023-07-13T07:02:20;2.57;;;1.60;;
8538;SDS011;4307;53.868;11.680;2023-07-13T07:04:47;2.10;;;1.90;;
8538;SDS011;4307;53.868;11.680;2023-07-13T07:07:15;4.57;;;2.17;;
8538;SDS011;4307;53.868;11.680;2023-07-13T07:09:41;4.30;;;2.40;;
8538;SDS011;4307;53.868;11.680;2023-07-13T07:12:08;3.83;;;2.20;;
8538;SDS011;4307;53.868;11.680;2023-07-13T07:14:35;4.53;;;2.20;;
8538;SDS011;4307;53.868;11.680;2023-07-13T07:17:02;2.83;;;1.97;;
8538;SDS011;4307;53.868;11.680;2023-07-13T07:19:30;3.87;;;2.23;;
8538;SDS011;4307;53.868;11.680;2023-07-13T07:21:57;3.53;;;1.90;;
8538;SDS011;4307;53.868;11.680;2023-07-13T07:24:23;4.53;;;2.00;;
8538;SDS011;4307;53.868;11.680;2023-07-13T07:26:50;3.17;;;2.10;;
8538;SDS011;4307;53.868;11.680;2023-07-13T07:29:17;4.10;;;2.03;;
8538;SDS011;4307;53.868;11.680;2023-07-13T07:31:43;3.40;;;1.70;;
8538;SDS011;4307;53.868;11.680;2023-07-13T07:34:10;4.03;;;2.20;;
8538;SDS011;4307;53.868;11.680;2023-07-13T07:36:38;5.77;;;2.43;;
8538;SDS011;4307;53.868;11.680;2023-07-13T07:39:05;3.03;;;2.10;;
8538;SDS011;4307;53.868;11.680;2023-07-13T07:41:32;4.83;;;2.33;;
8538;SDS011;4307;53.868;11.680;2023-07-13T07:43:58;2.90;;;2.60;;
8538;SDS011;4307;53.868;11.680;2023-07-13T07:46:25;2.17;;;1.80;;
8538;SDS011;4307;53.868;11.680;2023-07-13T07:48:53;2.93;;;2.10;;
8538;SDS011;4307;53.868;11.680;2023-07-13T07:51:19;2.23;;;2.07;;
8538;SDS011;4307;53.868;11.680;2023-07-13T07:53:47;5.33;;;2.20;;
8538;SDS011;4307;53.868;11.680;2023-07-13T07:56:14;6.03;;;2.10;;
8538;SDS011;4307;53.868;11.680;2023-07-13T07:58:42;6.77;;;2.40;;
8538;SDS011;4307;53.868;11.680;2023-07-13T08:01:09;4.43;;;2.00;;
8538;SDS011;4307;53.868;11.680;2023-07-13T08:03:36;5.33;;;2.37;;
8538;SDS011;4307;53.868;11.680;2023-07-13T08:06:03;3.13;;;2.03;;
8538;SDS011;4307;53.868;11.680;2023-07-13T08:08:29;4.57;;;2.13;;
8538;SDS011;4307;53.868;11.680;2023-07-13T08:10:57;4.70;;;1.93;;
8538;SDS011;4307;53.868;11.680;2023-07-13T08:13:27;3.13;;;1.97;;
8538;SDS011;4307;53.868;11.680;2023-07-13T08:15:54;4.10;;;2.30;;
8538;SDS011;4307;53.868;11.680;2023-07-13T08:18:21;4.73;;;2.20;;
8538;SDS011;4307;53.868;11.680;2023-07-13T08:20:47;4.43;;;2.27;;
8538;SDS011;4307;53.868;11.680;2023-07-13T08:23:14;4.80;;;2.00;;
8538;SDS011;4307;53.868;11.680;2023-07-13T08:25:41;4.73;;;2.13;;
8538;SDS011;4307;53.868;11.680;2023-07-13T08:28:09;4.53;;;2.30;;
8538;SDS011;4307;53.868;11.680;2023-07-13T08:30:36;5.57;;;2.40;;
8538;SDS011;4307;53.868;11.680;2023-07-13T08:33:03;5.83;;;2.40;;
8538;SDS011;4307;53.868;11.680;2023-07-13T08:35:30;2.40;;;2.20;;
8538;SDS011;4307;53.868;11.680;2023-07-13T08:37:57;5.63;;;2.30;;
8538;SDS011;4307;53.868;11.680;2023-07-13T08:40:25;5.07;;;1.90;;
8538;SDS011;4307;53.868;11.680;2023-07-13T08:42:53;3.80;;;2.27;;
8538;SDS011;4307;53.868;11.680;2023-07-13T08:45:23;6.70;;;2.47;;
8538;SDS011;4307;53.868;11.680;2023-07-13T08:47:57;3.83;;;1.90;;
8538;SDS011;4307;53.868;11.680;2023-07-13T08:50:30;5.43;;;2.57;;
8538;SDS011;4307;53.868;11.680;2023-07-13T08:52:59;4.30;;;2.50;;
8538;SDS011;4307;53.868;11.680;2023-07-13T08:55:29;9.03;;;2.53;;
8538;SDS011;4307;53.868;11.680;2023-07-13T08:57:59;4.57;;;2.13;;
8538;SDS011;4307;53.868;11.680;2023-07-13T09:00:33;6.93;;;2.70;;
8538;SDS011;4307;53.868;11.680;2023-07-13T09:03:08;9.27;;;2.30;;
8538;SDS011;4307;53.868;11.680;2023-07-13T09:05:45;3.30;;;1.97;;
8538;SDS011;4307;53.868;11.680;2023-07-13T09:08:22;3.20;;;2.03;;
8538;SDS011;4307;53.868;11.680;2023-07-13T09:11:07;2.97;;;1.83;;
8538;SDS011;4307;53.868;11.680;2023-07-13T09:13:43;6.80;;;2.67;;
8538;SDS011;4307;53.868;11.680;2023-07-13T09:16:19;4.50;;;2.33;;
8538;SDS011;4307;53.868;11.680;2023-07-13T09:18:47;5.17;;;2.13;;
8538;SDS011;4307;53.868;11.680;2023-07-13T09:21:17;6.07;;;2.43;;
8538;SDS011;4307;53.868;11.680;2023-07-13T09:23:47;4.10;;;1.90;;
8538;SDS011;4307;53.868;11.680;2023-07-13T09:26:16;4.90;;;2.10;;
8538;SDS011;4307;53.868;11.680;2023-07-13T09:28:46;5.20;;;2.43;;
8538;SDS011;4307;53.868;11.680;2023-07-13T09:31:16;8.00;;;2.20;;
8538;SDS011;4307;53.868;11.680;2023-07-13T09:33:49;3.97;;;2.30;;
8538;SDS011;4307;53.868;11.680;2023-07-13T09:36:18;3.07;;;1.97;;
8538;SDS011;4307;53.868;11.680;2023-07-13T09:38:46;3.83;;;1.80;;
8538;SDS011;4307;53.868;11.680;2023-07-13T09:41:18;7.00;;;2.10;;
8538;SDS011;4307;53.868;11.680;2023-07-13T09:44:07;5.43;;;1.90;;
8538;SDS011;4307;53.868;11.680;2023-07-13T09:46:38;6.97;;;2.63;;
8538;SDS011;4307;53.868;11.680;2023-07-13T09:49:10;6.07;;;2.00;;
8538;SDS011;4307;53.868;11.680;2023-07-13T09:51:37;3.43;;;1.87;;
8538;SDS011;4307;53.868;11.680;2023-07-13T09:54:04;5.87;;;2.43;;
8538;SDS011;4307;53.868;11.680;2023-07-13T09:56:31;4.33;;;2.37;;
8538;SDS011;4307;53.868;11.680;2023-07-13T09:58:58;3.00;;;1.70;;
8538;SDS011;4307;53.868;11.680;2023-07-13T10:01:32;4.87;;;1.83;;
8538;SDS011;4307;53.868;11.680;2023-07-13T10:04:02;5.93;;;2.07;;
8538;SDS011;4307;53.868;11.680;2023-07-13T10:06:36;2.87;;;1.57;;
8538;SDS011;4307;53.868;11.680;2023-07-13T10:09:04;4.27;;;1.73;;
8538;SDS011;4307;53.868;11.680;2023-07-13T10:11:34;4.10;;;2.07;;
8538;SDS011;4307;53.868;11.680;2023-07-13T10:14:03;2.00;;;1.50;;
8538;SDS011;4307;53.868;11.680;2023-07-13T10:16:37;5.67;;;2.10;;
8538;SDS011;4307;53.868;11.680;2023-07-13T10:19:11;3.53;;;1.87;;
8538;SDS011;4307;53.868;11.680;2023-07-13T10:21:43;6.70;;;2.17;;
8538;SDS011;4307;53.868;11.680;2023-07-13T10:24:17;4.90;;;2.00;;
8538;SDS011;4307;53.868;11.680;2023-07-13T10:26:48;3.37;;;2.00;;
8538;SDS011;4307;53.868;11.680;2023-07-13T10:29:20;5.57;;;1.63;;
8538;SDS011;4307;53.868;11.680;2023-07-13T10:31:49;3.13;;;2.10;;
8538;SDS011;4307;53.868;11.680;2023-07-13T10:34:18;3.80;;;1.63;;
8538;SDS011;4307;53.868;11.680;2023-07-13T10:36:45;2.37;;;1.70;;
8538;SDS011;4307;53.868;11.680;2023-07-13T10:39:15;4.30;;;2.20;;
8538;SDS011;4307;53.868;11.680;2023-07-13T10:41:49;2.70;;;1.70;;
8538;SDS011;4307;53.868;11.680;2023-07-13T10:44:20;2.93;;;1.97;;
8538;SDS011;4307;53.868;11.680;2023-07-13T10:46:51;6.50;;;2.20;;
8538;SDS011;4307;53.868;11.680;2023-07-13T10:49:21;6.30;;;1.83;;
8538;SDS011;4307;53.868;11.680;2023-07-13T10:51:49;3.30;;;1.93;;
8538;SDS011;4307;53.868;11.680;2023-07-13T10:54:18;3.77;;;1.70;;
8538;SDS011;4307;53.868;11.680;2023-07-13T10:56:49;3.77;;;2.00;;
8538;SDS011;4307;53.868;11.680;2023-07-13T10:59:18;4.73;;;2.03;;
8538;SDS011;4307;53.868;11.680;2023-07-13T11:01:54;2.87;;;1.70;;
8538;SDS011;4307;53.868;11.680;2023-07-13T11:04:25;3.50;;;1.50;;
8538;SDS011;4307;53.868;11.680;2023-07-13T11:06:56;4.13;;;1.70;;
8538;SDS011;4307;53.868;11.680;2023-07-13T11:09:31;5.27;;;1.67;;
8538;SDS011;4307;53.868;11.680;2023-07-13T11:12:26;1.97;;;1.70;;
8538;SDS011;4307;53.868;11.680;2023-07-13T11:15:04;2.63;;;1.40;;
8538;SDS011;4307;53.868;11.680;2023-07-13T11:17:47;3.23;;;1.53;;
8538;SDS011;4307;53.868;11.680;2023-07-13T11:20:30;3.63;;;1.80;;
8538;SDS011;4307;53.868;11.680;2023-07-13T11:23:16;5.73;;;1.80;;
8538;SDS011;4307;53.868;11.680;2023-07-13T11:26:01;5.03;;;1.70;;
8538;SDS011;4307;53.868;11.680;2023-07-13T11:28:30;6.53;;;1.70;;
8538;SDS011;4307;53.868;11.680;2023-07-13T11:31:14;4.60;;;1.63;;
8538;SDS011;4307;53.868;11.680;2023-07-13T11:33:53;2.73;;;1.57;;
8538;SDS011;4307;53.868;11.680;2023-07-13T11:36:27;6.13;;;2.00;;
8538;SDS011;4307;53.868;11.680;2023-07-13T11:39:05;2.40;;;1.80;;
8538;SDS011;4307;53.868;11.680;2023-07-13T11:41:45;5.27;;;2.17;;
8538;SDS011;4307;53.868;11.680;2023-07-13T11:44:18;2.77;;;1.97;;
8538;SDS011;4307;53.868;11.680;2023-07-13T11:46:46;3.20;;;1.97;;
8538;SDS011;4307;53.868;11.680;2023-07-13T11:49:15;3.60;;;2.23;;
8538;SDS011;4307;53.868;11.680;2023-07-13T11:51:44;4.30;;;2.00;;
8538;SDS011;4307;53.868;11.680;2023-07-13T11:54:17;2.20;;;1.77;;
8538;SDS011;4307;53.868;11.680;2023-07-13T11:56:50;3.47;;;2.40;;
8538;SDS011;4307;53.868;11.680;2023-07-13T11:59:16;3.00;;;2.27;;
8538;SDS011;4307;53.868;11.680;2023-07-13T12:01:45;4.77;;;2.23;;
8538;SDS011;4307;53.868;11.680;2023-07-13T12:04:19;3.13;;;1.90;;
8538;SDS011;4307;53.868;11.680;2023-07-13T12:06:54;4.00;;;2.07;;
8538;SDS011;4307;53.868;11.680;2023-07-13T12:09:25;3.17;;;1.90;;
8538;SDS011;4307;53.868;11.680;2023-07-13T12:11:53;4.33;;;1.97;;
8538;SDS011;4307;53.868;11.680;2023-07-13T12:14:22;2.20;;;1.70;;
8538;SDS011;4307;53.868;11.680;2023-07-13T12:16:51;4.70;;;2.23;;
8538;SDS011;4307;53.868;11.680;2023-07-13T12:19:20;4.50;;;2.47;;
8538;SDS011;4307;53.868;11.680;2023-07-13T12:21:48;4.00;;;2.50;;
8538;SDS011;4307;53.868;11.680;2023-07-13T12:24:17;2.93;;;1.73;;
8538;SDS011;4307;53.868;11.680;2023-07-13T12:26:50;2.20;;;2.00;;
8538;SDS011;4307;53.868;11.680;2023-07-13T12:29:17;3.60;;;2.43;;
8538;SDS011;4307;53.868;11.680;2023-07-13T12:31:45;2.30;;;2.00;;
8538;SDS011;4307;53.868;11.680;2023-07-13T12:34:14;3.67;;;2.20;;
8538;SDS011;4307;53.868;11.680;2023-07-13T12:36:45;3.97;;;2.20;;
8538;SDS011;4307;53.868;11.680;2023-07-13T12:39:15;3.37;;;2.30;;
8538;SDS011;4307;53.868;11.680;2023-07-13T12:41:45;2.57;;;2.03;;
8538;SDS011;4307;53.868;11.680;2023-07-13T12:44:13;4.10;;;1.90;;
8538;SDS011;4307;53.868;11.680;2023-07-13T12:46:50;4.23;;;2.07;;
8538;SDS011;4307;53.868;11.680;2023-07-13T12:49:21;3.47;;;2.40;;
8538;SDS011;4307;53.868;11.680;2023-07-13T12:51:57;2.90;;;1.80;;
8538;SDS011;4307;53.868;11.680;2023-07-13T12:54:26;4.80;;;2.03;;
8538;SDS011;4307;53.868;11.680;2023-07-13T12:56:54;2.87;;;1.90;;
8538;SDS011;4307;53.868;11.680;2023-07-13T12:59:24;5.13;;;1.87;;
8538;SDS011;4307;53.868;11.680;2023-07-13T13:01:55;5.60;;;1.67;;
8538;SDS011;4307;53.868;11.680;2023-07-13T13:04:22;3.03;;;1.70;;
8538;SDS011;4307;53.868;11.680;2023-07-13T13:07:00;5.00;;;1.80;;
8538;SDS011;4307;53.868;11.680;2023-07-13T13:09:29;2.17;;;1.50;;
8538;SDS011;4307;53.868;11.680;2023-07-13T13:11:55;1.97;;;1.73;;
8538;SDS011;4307;53.868;11.680;2023-07-13T13:14:22;1.67;;;1.40;;
8538;SDS011;4307;53.868;11.680;2023-07-13T13:16:50;3.87;;;1.50;;
8538;SDS011;4307;53.868;11.680;2023-07-13T13:19:19;2.07;;;1.57;;
8538;SDS011;4307;53.868;11.680;2023-07-13T13:21:47;4.10;;;1.43;;
8538;SDS011;4307;53.868;11.680;2023-07-13T13:24:16;3.37;;;1.30;;
8538;SDS011;4307;53.868;11.680;2023-07-13T13:26:46;2.43;;;1.70;;
8538;SDS011;4307;53.868;11.680;2023-07-13T13:29:15;1.93;;;1.70;;
8538;SDS011;4307;53.868;11.680;2023-07-13T13:31:43;4.73;;;2.23;;
8538;SDS011;4307;53.868;11.680;2023-07-13T13:34:11;3.13;;;1.97;;
8538;SDS011;4307;53.868;11.680;2023-07-13T13:36:39;2.70;;;1.90;;
8538;SDS011;4307;53.868;11.680;2023-07-13T13:39:15;6.00;;;1.70;;
8538;SDS011;4307;53.868;11.680;2023-07-13T13:41:49;3.73;;;1.67;;
8538;SDS011;4307;53.868;11.680;2023-07-13T13:44:16;1.47;;;1.37;;
8538;SDS011;4307;53.868;11.680;2023-07-13T13:46:44;4.43;;;1.80;;
8538;SDS011;4307;53.868;11.680;2023-07-13T13:49:13;1.63;;;1.20;;
8538;SDS011;4307;53.868;11.680;2023-07-13T13:51:43;1.60;;;1.43;;
8538;SDS011;4307;53.868;11.680;2023-07-13T13:54:10;3.47;;;1.33;;
8538;SDS011;4307;53.868;11.680;2023-07-13T13:56:39;4.57;;;1.80;;
8538;SDS011;4307;53.868;11.680;2023-07-13T13:59:08;2.37;;;1.50;;
8538;SDS011;4307;53.868;11.680;2023-07-13T14:01:35;4.00;;;1.67;;
8538;SDS011;4307;53.868;11.680;2023-07-13T14:04:03;1.97;;;1.70;;
8538;SDS011;4307;53.868;11.680;2023-07-13T14:06:32;2.63;;;1.33;;
8538;SDS011;4307;53.868;11.680;2023-07-13T14:08:59;3.17;;;1.50;;
8538;SDS011;4307;53.868;11.680;2023-07-13T14:11:27;3.10;;;1.50;;
8538;SDS011;4307;53.868;11.680;2023-07-13T14:13:56;2.17;;;1.83;;
8538;SDS011;4307;53.868;11.680;2023-07-13T14:16:27;3.33;;;2.10;;
8538;SDS011;4307;53.868;11.680;2023-07-13T14:18:58;3.63;;;1.60;;
8538;SDS011;4307;53.868;11.680;2023-07-13T14:21:26;2.80;;;1.43;;
8538;SDS011;4307;53.868;11.680;2023-07-13T14:23:54;5.63;;;2.07;;
8538;SDS011;4307;53.868;11.680;2023-07-13T14:26:21;1.90;;;1.57;;
8538;SDS011;4307;53.868;11.680;2023-07-13T14:28:50;5.03;;;1.80;;
8538;SDS011;4307;53.868;11.680;2023-07-13T14:31:18;2.07;;;1.80;;
8538;SDS011;4307;53.868;11.680;2023-07-13T14:33:48;5.07;;;1.77;;
8538;SDS011;4307;53.868;11.680;2023-07-13T14:36:23;4.37;;;1.57;;
8538;SDS011;4307;53.868;11.680;2023-07-13T14:38:54;4.00;;;1.60;;
8538;SDS011;4307;53.868;11.680;2023-07-13T14:41:21;1.80;;;1.20;;
8538;SDS011;4307;53.868;11.680;2023-07-13T14:43:48;1.70;;;1.30;;
8538;SDS011;4307;53.868;11.680;2023-07-13T14:49:04;2.03;;;1.40;;
8538;SDS011;4307;53.868;11.680;2023-07-13T14:51:32;1.83;;;1.40;;
8538;SDS011;4307;53.868;11.680;2023-07-13T14:54:01;1.67;;;1.50;;
8538;SDS011;4307;53.868;11.680;2023-07-13T14:56:30;3.47;;;1.47;;
8538;SDS011;4307;53.868;11.680;2023-07-13T14:58:57;1.53;;;1.43;;
8538;SDS011;4307;53.868;11.680;2023-07-13T15:01:24;2.37;;;1.90;;
8538;SDS011;4307;53.868;11.680;2023-07-13T15:03:52;6.23;;;1.73;;
8538;SDS011;4307;53.868;11.680;2023-07-13T15:06:20;1.10;;;1.00;;
8538;SDS011;4307;53.868;11.680;2023-07-13T15:08:47;3.40;;;1.30;;
8538;SDS011;4307;53.868;11.680;2023-07-13T15:11:15;2.73;;;1.70;;
8538;SDS011;4307;53.868;11.680;2023-07-13T15:13:42;2.57;;;1.20;;
8538;SDS011;4307;53.868;11.680;2023-07-13T15:16:14;4.57;;;1.67;;